createdAt,value
2023-03-20T00:00:10.500Z,62.70
2023-03-20T00:05:03.304Z,62.56
2023-03-20T00:09:57.944Z,62.84
2023-03-20T00:14:50.920Z,63.05
2023-03-20T00:19:43.727Z,63.27
2023-03-20T00:24:36.522Z,63.28
2023-03-20T00:29:32.259Z,63.42
2023-03-20T00:34:29.214Z,63.34
2023-03-20T00:39:22.098Z,63.39
2023-03-20T00:44:26.932Z,63.54
2023-03-20T00:49:24.158Z,63.43
2023-03-20T00:54:18.989Z,63.72
2023-03-20T00:59:19.288Z,63.54
2023-03-20T01:04:18.096Z,63.76
2023-03-20T01:09:10.990Z,63.74
2023-03-20T01:14:04.626Z,63.98
2023-03-20T01:18:58.020Z,63.95
2023-03-20T01:23:50.967Z,64.08
2023-03-20T01:28:43.791Z,64.33
2023-03-20T01:33:37.046Z,64.30
2023-03-20T01:38:30.118Z,64.46
2023-03-20T01:43:25.156Z,64.56
2023-03-20T01:48:20.060Z,64.96
2023-03-20T01:53:16.647Z,64.89
2023-03-20T01:58:22.929Z,64.83
2023-03-20T02:03:17.506Z,65.29
2023-03-20T02:08:32.555Z,65.07
2023-03-20T02:13:31.250Z,64.97
2023-03-20T02:18:25.372Z,65.24
2023-03-20T02:23:53.664Z,65.39
2023-03-20T02:29:03.575Z,65.47
2023-03-20T02:34:29.803Z,65.44
2023-03-20T02:39:51.282Z,65.48
2023-03-20T02:45:26.257Z,65.55
2023-03-20T02:50:43.117Z,65.74
2023-03-20T02:55:41.090Z,65.81
2023-03-20T03:00:39.629Z,65.88
2023-03-20T03:05:42.438Z,66.13
2023-03-20T03:10:44.812Z,66.26
2023-03-20T03:15:41.261Z,66.24
2023-03-20T03:20:46.324Z,66.26
2023-03-20T03:25:42.976Z,66.32
2023-03-20T03:30:39.783Z,66.58
2023-03-20T03:35:32.704Z,66.68
2023-03-20T03:40:35.561Z,66.55
2023-03-20T03:45:41.929Z,66.49
2023-03-20T03:50:48.494Z,66.75
2023-03-20T03:55:48.137Z,67.09
2023-03-20T04:00:46.346Z,66.86
2023-03-20T04:05:43.992Z,67.09
2023-03-20T04:10:36.690Z,67.15
2023-03-20T04:15:29.853Z,67.19
2023-03-20T04:20:23.587Z,67.19
2023-03-20T04:25:23.062Z,67.30
2023-03-20T04:30:19.315Z,67.09
2023-03-20T04:35:30.829Z,67.67
2023-03-20T04:40:29.263Z,67.42
2023-03-20T04:45:22.831Z,67.55
2023-03-20T04:50:16.091Z,67.73
2023-03-20T04:55:10.076Z,67.71
2023-03-20T05:00:04.188Z,67.46
2023-03-20T05:04:58.276Z,67.67
2023-03-20T05:09:51.394Z,67.73
2023-03-20T05:14:44.733Z,68.04
2023-03-20T05:20:03.953Z,67.69
2023-03-20T05:25:17.011Z,67.61
2023-03-20T05:30:27.063Z,67.66
2023-03-20T05:35:38.971Z,67.63
2023-03-20T05:41:01.609Z,67.89
2023-03-20T05:46:05.819Z,67.54
2023-03-20T05:51:18.063Z,67.69
2023-03-20T05:56:34.148Z,67.23
2023-03-20T06:02:05.855Z,67.06
2023-03-20T06:07:01.009Z,67.44
2023-03-20T06:11:54.166Z,67.11
2023-03-20T06:16:47.342Z,67.16
2023-03-20T06:21:41.048Z,66.88
2023-03-20T06:26:36.241Z,66.70
2023-03-20T06:31:31.520Z,66.74
2023-03-20T06:36:26.044Z,66.70
2023-03-20T06:41:33.791Z,66.61
2023-03-20T06:46:28.387Z,66.55
2023-03-20T06:51:21.266Z,66.30
2023-03-20T06:56:18.041Z,66.40
2023-03-20T07:01:13.341Z,65.44
2023-03-20T07:06:06.756Z,64.64
2023-03-20T07:10:59.833Z,63.89
2023-03-20T07:16:03.719Z,63.30
2023-03-20T07:21:03.201Z,62.92
2023-03-20T07:25:56.827Z,62.45
2023-03-20T07:30:50.429Z,61.93
2023-03-20T07:35:44.687Z,60.64
2023-03-20T07:40:38.202Z,58.13
2023-03-20T07:45:36.098Z,56.56
2023-03-20T07:50:29.398Z,54.14
2023-03-20T07:55:22.249Z,51.06
2023-03-20T08:00:16.567Z,48.10
2023-03-20T08:05:11.380Z,45.91
2023-03-20T08:10:05.416Z,44.57
2023-03-20T08:14:58.428Z,44.37
2023-03-20T08:19:51.199Z,42.15
2023-03-20T08:24:44.039Z,40.69
2023-03-20T08:29:36.956Z,39.73
2023-03-20T08:34:29.767Z,38.39
2023-03-20T08:39:22.607Z,38.84
2023-03-20T08:44:15.431Z,39.00
2023-03-20T08:49:08.468Z,39.41
2023-03-20T08:54:01.316Z,39.21
2023-03-20T08:58:56.177Z,39.11
2023-03-20T09:03:49.200Z,39.42
2023-03-20T09:08:41.970Z,39.57
2023-03-20T09:13:35.932Z,40.11
2023-03-20T09:18:28.769Z,40.34
2023-03-20T09:23:21.684Z,40.38
2023-03-20T09:28:14.864Z,39.45
2023-03-20T09:33:07.837Z,38.97
2023-03-20T09:38:00.840Z,38.89
2023-03-20T09:43:15.803Z,37.78
2023-03-20T09:48:11.339Z,36.19
2023-03-20T09:53:15.032Z,36.75
2023-03-20T09:58:22.972Z,36.09
2023-03-20T10:03:38.663Z,35.11
2023-03-20T10:08:36.479Z,32.70
2023-03-20T10:13:38.518Z,30.38
2023-03-20T10:18:36.498Z,28.96
2023-03-20T10:23:48.895Z,28.20
2023-03-20T10:28:58.693Z,28.58
2023-03-20T10:34:11.847Z,29.72
2023-03-20T10:39:30.927Z,29.68
2023-03-20T10:44:43.363Z,29.13
2023-03-20T10:49:51.577Z,29.51
2023-03-20T10:54:53.646Z,29.81
2023-03-20T10:59:50.137Z,29.93
2023-03-20T11:04:43.916Z,30.63
2023-03-20T11:09:36.853Z,31.46
2023-03-20T11:14:39.021Z,32.22
2023-03-20T11:19:38.268Z,32.45
2023-03-20T11:24:45.793Z,33.35
2023-03-20T11:29:43.156Z,33.84
2023-03-20T11:34:41.188Z,34.31
2023-03-20T11:39:34.266Z,34.75
2023-03-20T11:44:34.159Z,34.54
2023-03-20T11:49:28.012Z,34.32
2023-03-20T11:54:25.105Z,33.91
2023-03-20T11:59:19.498Z,32.72
2023-03-20T12:04:32.143Z,33.09
2023-03-20T12:09:52.663Z,33.87
2023-03-20T12:14:58.856Z,35.17
2023-03-20T12:19:57.880Z,35.58
2023-03-20T12:25:33.688Z,36.24
2023-03-20T12:30:46.518Z,36.65
2023-03-20T12:35:42.550Z,37.24
2023-03-20T12:40:44.295Z,37.91
2023-03-20T12:45:44.801Z,38.34
2023-03-20T12:50:41.213Z,38.69
2023-03-20T12:55:47.188Z,39.34
2023-03-20T13:01:05.008Z,39.82
2023-03-20T13:06:22.341Z,40.02
2023-03-20T13:11:40.335Z,40.14
2023-03-20T13:16:41.872Z,40.34
2023-03-20T13:21:41.837Z,40.73
2023-03-20T13:26:44.029Z,40.56
2023-03-20T13:32:03.643Z,41.13
2023-03-20T13:37:22.399Z,41.01
2023-03-20T13:42:22.207Z,41.49
2023-03-20T13:47:21.231Z,41.83
2023-03-20T13:52:23.937Z,42.19
2023-03-20T13:57:41.859Z,42.66
2023-03-20T14:02:39.169Z,43.61
2023-03-20T14:07:36.284Z,44.38
2023-03-20T14:12:34.070Z,45.33
2023-03-20T14:17:31.030Z,46.21
2023-03-20T14:22:28.924Z,47.17
2023-03-20T14:27:36.879Z,47.95
2023-03-20T14:32:36.522Z,48.60
2023-03-20T14:37:58.341Z,49.42
2023-03-20T14:43:01.257Z,50.03
2023-03-20T14:48:08.470Z,50.72
2023-03-20T14:53:22.102Z,51.29
2023-03-20T14:58:34.957Z,52.67
2023-03-20T15:03:27.900Z,54.07
2023-03-20T15:08:33.179Z,54.69
2023-03-20T15:13:27.376Z,54.93
2023-03-20T15:18:23.435Z,55.35
2023-03-20T15:23:16.692Z,56.05
2023-03-20T15:28:16.282Z,56.85
2023-03-20T15:33:18.586Z,57.46
2023-03-20T15:38:16.134Z,58.11
2023-03-20T15:43:27.580Z,58.50
2023-03-20T15:48:23.182Z,59.13
2023-03-20T15:53:46.119Z,59.57
2023-03-20T15:58:39.523Z,60.32
2023-03-20T16:03:32.888Z,61.11
2023-03-20T16:08:31.993Z,61.69
2023-03-20T16:13:25.769Z,62.19
2023-03-20T16:18:19.800Z,62.50
2023-03-20T16:23:29.043Z,62.59
2023-03-20T16:28:21.945Z,62.43
2023-03-20T16:33:18.389Z,62.45
2023-03-20T16:38:34.453Z,62.54
2023-03-20T16:43:37.492Z,62.57
2023-03-20T16:48:38.250Z,62.71
2023-03-20T16:53:38.370Z,62.88
2023-03-20T16:58:34.490Z,62.94
2023-03-20T17:03:38.173Z,63.18
2023-03-20T17:08:56.195Z,63.35
2023-03-20T17:13:50.035Z,63.76
2023-03-20T17:18:42.948Z,64.41
2023-03-20T17:23:36.652Z,64.53
2023-03-20T17:28:35.113Z,65.11
2023-03-20T17:33:29.862Z,65.37
2023-03-20T17:38:23.729Z,65.58
2023-03-20T17:43:17.909Z,65.87
2023-03-20T17:48:16.826Z,66.14
2023-03-20T17:53:18.458Z,66.31
2023-03-20T17:58:15.820Z,66.21
2023-03-20T18:03:09.645Z,66.64
2023-03-20T18:08:02.556Z,66.62
2023-03-20T18:12:55.511Z,66.49
2023-03-20T18:17:48.299Z,67.16
2023-03-20T18:22:41.203Z,67.25
2023-03-20T18:27:34.035Z,66.78
2023-03-20T18:32:26.909Z,66.66
2023-03-20T18:37:22.055Z,66.97
2023-03-20T18:42:14.966Z,66.99
2023-03-20T18:47:07.785Z,67.40
2023-03-20T18:52:00.579Z,68.00
2023-03-20T18:56:54.639Z,67.62
2023-03-20T19:01:48.813Z,68.22
2023-03-20T19:06:41.676Z,68.74
2023-03-20T19:11:35.284Z,68.94
2023-03-20T19:16:30.918Z,69.09
2023-03-20T19:21:26.575Z,68.92
2023-03-20T19:26:21.231Z,69.13
2023-03-20T19:31:14.787Z,69.56
2023-03-20T19:36:09.473Z,69.61
2023-03-20T19:41:03.936Z,69.83
2023-03-20T19:45:59.056Z,70.18
2023-03-20T19:50:52.677Z,70.40
2023-03-20T19:55:46.930Z,70.26
2023-03-20T20:01:06.211Z,69.77
2023-03-20T20:05:54.943Z,70.10
2023-03-20T20:10:53.109Z,70.13
2023-03-20T20:15:46.686Z,70.12
2023-03-20T20:21:14.224Z,70.71
2023-03-20T20:25:54.778Z,70.97
2023-03-20T20:30:49.892Z,71.13
2023-03-20T20:36:07.471Z,71.10
2023-03-20T20:40:56.025Z,71.35
2023-03-20T20:45:52.565Z,71.78
2023-03-20T20:50:46.732Z,71.94
2023-03-20T20:55:40.313Z,72.46
2023-03-20T21:00:48.577Z,72.75
2023-03-20T21:05:44.048Z,73.07
2023-03-20T21:10:36.812Z,73.46
2023-03-20T21:15:29.711Z,73.79
2023-03-20T21:20:23.864Z,73.90
2023-03-20T21:25:18.696Z,74.05
2023-03-20T21:30:13.555Z,74.18
2023-03-20T21:35:09.386Z,74.39
2023-03-20T21:40:02.172Z,74.25
2023-03-20T22:06:33.321Z,74.83
2023-03-20T22:11:57.158Z,75.20
2023-03-20T22:17:10.174Z,75.32
2023-03-20T22:22:12.012Z,75.21
2023-03-20T22:37:54.152Z,75.49
2023-03-20T22:47:40.754Z,75.95
2023-03-20T22:52:48.226Z,75.93
2023-03-20T22:57:52.840Z,76.16
2023-03-20T23:02:57.250Z,76.16
2023-03-20T23:07:53.337Z,76.26
2023-03-20T23:12:46.188Z,76.26
2023-03-20T23:17:38.999Z,76.41
2023-03-20T23:22:31.818Z,76.42
2023-03-20T23:27:24.629Z,76.44
2023-03-20T23:32:17.437Z,76.53
2023-03-20T23:37:10.614Z,76.39
2023-03-20T23:42:14.423Z,76.54
2023-03-20T23:47:19.387Z,76.45
2023-03-20T23:52:13.901Z,76.73
2023-03-20T23:57:06.912Z,76.70
